sensor_id;sensor_type;location;lat;lon;timestamp;temperature;humidity
71304;DHT22;59091;47.446;19.148;2022-12-10T00:00:33;8.18;83.73
71304;DHT22;59091;47.446;19.148;2022-12-10T00:02:58;8.16;83.60
71304;DHT22;59091;47.446;19.148;2022-12-10T00:05:24;8.24;83.50
71304;DHT22;59091;47.446;19.148;2022-12-10T00:07:49;8.24;83.44
71304;DHT22;59091;47.446;19.148;2022-12-10T00:10:14;8.24;83.40
71304;DHT22;59091;47.446;19.148;2022-12-10T00:12:40;8.28;83.43
71304;DHT22;59091;47.446;19.148;2022-12-10T00:15:05;8.29;83.38
71304;DHT22;59091;47.446;19.148;2022-12-10T00:17:31;8.32;83.32
71304;DHT22;59091;47.446;19.148;2022-12-10T00:19:56;8.39;83.26
71304;DHT22;59091;47.446;19.148;2022-12-10T00:22:22;8.39;83.20
71304;DHT22;59091;47.446;19.148;2022-12-10T00:24:47;8.41;83.12
71304;DHT22;59091;47.446;19.148;2022-12-10T00:27:12;8.39;83.11
71304;DHT22;59091;47.446;19.148;2022-12-10T00:29:39;8.46;82.94
71304;DHT22;59091;47.446;19.148;2022-12-10T00:32:04;8.48;82.81
71304;DHT22;59091;47.446;19.148;2022-12-10T00:34:31;8.43;82.91
71304;DHT22;59091;47.446;19.148;2022-12-10T00:36:57;8.49;82.87
71304;DHT22;59091;47.446;19.148;2022-12-10T00:39:22;8.49;82.89
71304;DHT22;59091;47.446;19.148;2022-12-10T00:41:48;8.46;82.95
71304;DHT22;59091;47.446;19.148;2022-12-10T00:44:14;8.50;82.98
71304;DHT22;59091;47.446;19.148;2022-12-10T00:46:40;8.49;83.05
71304;DHT22;59091;47.446;19.148;2022-12-10T00:49:05;8.50;83.11
71304;DHT22;59091;47.446;19.148;2022-12-10T00:51:31;8.50;83.18
71304;DHT22;59091;47.446;19.148;2022-12-10T00:53:57;8.52;83.21
71304;DHT22;59091;47.446;19.148;2022-12-10T00:56:28;8.54;83.02
71304;DHT22;59091;47.446;19.148;2022-12-10T00:58:54;8.54;83.12
71304;DHT22;59091;47.446;19.148;2022-12-10T01:01:29;8.54;83.14
71304;DHT22;59091;47.446;19.148;2022-12-10T01:03:58;8.56;83.15
71304;DHT22;59091;47.446;19.148;2022-12-10T01:06:26;8.53;83.21
71304;DHT22;59091;47.446;19.148;2022-12-10T01:08:54;8.56;83.15
71304;DHT22;59091;47.446;19.148;2022-12-10T01:11:23;8.59;83.04
71304;DHT22;59091;47.446;19.148;2022-12-10T01:13:49;8.57;83.10
71304;DHT22;59091;47.446;19.148;2022-12-10T01:16:17;8.62;82.87
71304;DHT22;59091;47.446;19.148;2022-12-10T01:18:43;8.60;82.93
71304;DHT22;59091;47.446;19.148;2022-12-10T01:21:18;8.57;82.84
71304;DHT22;59091;47.446;19.148;2022-12-10T01:23:46;8.49;83.20
71304;DHT22;59091;47.446;19.148;2022-12-10T01:26:14;8.52;83.07
71304;DHT22;59091;47.446;19.148;2022-12-10T01:28:41;8.46;83.37
71304;DHT22;59091;47.446;19.148;2022-12-10T01:31:11;8.50;83.22
71304;DHT22;59091;47.446;19.148;2022-12-10T01:33:38;8.48;83.21
71304;DHT22;59091;47.446;19.148;2022-12-10T01:36:09;8.49;82.96
71304;DHT22;59091;47.446;19.148;2022-12-10T01:38:35;8.50;83.09
71304;DHT22;59091;47.446;19.148;2022-12-10T01:41:01;8.46;83.37
71304;DHT22;59091;47.446;19.148;2022-12-10T01:43:27;8.48;83.15
71304;DHT22;59091;47.446;19.148;2022-12-10T01:45:52;8.50;83.16
71304;DHT22;59091;47.446;19.148;2022-12-10T01:48:18;8.43;83.32
71304;DHT22;59091;47.446;19.148;2022-12-10T01:50:44;8.48;83.42
71304;DHT22;59091;47.446;19.148;2022-12-10T01:53:10;8.53;83.16
71304;DHT22;59091;47.446;19.148;2022-12-10T01:55:46;8.54;82.90
71304;DHT22;59091;47.446;19.148;2022-12-10T01:58:15;8.59;82.99
71304;DHT22;59091;47.446;19.148;2022-12-10T02:00:48;8.62;82.80
71304;DHT22;59091;47.446;19.148;2022-12-10T02:03:21;8.63;82.73
71304;DHT22;59091;47.446;19.148;2022-12-10T02:06:01;8.63;82.64
71304;DHT22;59091;47.446;19.148;2022-12-10T02:08:36;8.69;82.69
71304;DHT22;59091;47.446;19.148;2022-12-10T02:11:07;8.66;82.69
71304;DHT22;59091;47.446;19.148;2022-12-10T02:13:45;8.64;82.88
71304;DHT22;59091;47.446;19.148;2022-12-10T02:16:18;8.67;82.94
71304;DHT22;59091;47.446;19.148;2022-12-10T02:18:58;8.62;82.80
71304;DHT22;59091;47.446;19.148;2022-12-10T02:21:33;8.63;82.87
71304;DHT22;59091;47.446;19.148;2022-12-10T02:24:03;8.70;82.88
71304;DHT22;59091;47.446;19.148;2022-12-10T02:31:24;8.76;82.72
71304;DHT22;59091;47.446;19.148;2022-12-10T02:33:55;8.74;82.69
71304;DHT22;59091;47.446;19.148;2022-12-10T02:36:24;8.77;82.67
71304;DHT22;59091;47.446;19.148;2022-12-10T02:38:51;8.77;82.66
71304;DHT22;59091;47.446;19.148;2022-12-10T02:41:23;8.81;82.52
71304;DHT22;59091;47.446;19.148;2022-12-10T02:43:52;8.77;82.64
71304;DHT22;59091;47.446;19.148;2022-12-10T02:46:19;8.80;82.65
71304;DHT22;59091;47.446;19.148;2022-12-10T02:48:47;8.84;82.50
71304;DHT22;59091;47.446;19.148;2022-12-10T02:51:13;8.83;82.50
71304;DHT22;59091;47.446;19.148;2022-12-10T02:53:43;8.81;82.40
71304;DHT22;59091;47.446;19.148;2022-12-10T02:56:28;8.74;82.30
71304;DHT22;59091;47.446;19.148;2022-12-10T02:59:06;8.79;82.62
71304;DHT22;59091;47.446;19.148;2022-12-10T03:04:21;8.79;82.60
71304;DHT22;59091;47.446;19.148;2022-12-10T03:06:53;8.79;82.45
71304;DHT22;59091;47.446;19.148;2022-12-10T03:09:26;8.79;82.53
71304;DHT22;59091;47.446;19.148;2022-12-10T03:12:00;8.79;82.61
71304;DHT22;59091;47.446;19.148;2022-12-10T03:14:30;8.79;82.57
71304;DHT22;59091;47.446;19.148;2022-12-10T03:16:59;8.84;82.63
71304;DHT22;59091;47.446;19.148;2022-12-10T03:19:34;8.80;82.43
71304;DHT22;59091;47.446;19.148;2022-12-10T03:22:03;8.84;82.59
71304;DHT22;59091;47.446;19.148;2022-12-10T03:24:30;8.84;82.61
71304;DHT22;59091;47.446;19.148;2022-12-10T03:26:57;8.85;82.62
71304;DHT22;59091;47.446;19.148;2022-12-10T03:29:36;8.83;82.41
71304;DHT22;59091;47.446;19.148;2022-12-10T03:32:03;8.85;82.68
71304;DHT22;59091;47.446;19.148;2022-12-10T03:34:29;8.85;82.75
71304;DHT22;59091;47.446;19.148;2022-12-10T03:36:54;8.87;82.68
71304;DHT22;59091;47.446;19.148;2022-12-10T03:39:20;8.85;82.83
71304;DHT22;59091;47.446;19.148;2022-12-10T03:41:46;8.88;82.86
71304;DHT22;59091;47.446;19.148;2022-12-10T03:44:11;8.84;82.74
71304;DHT22;59091;47.446;19.148;2022-12-10T03:46:37;8.84;82.71
71304;DHT22;59091;47.446;19.148;2022-12-10T03:49:05;8.77;82.93
71304;DHT22;59091;47.446;19.148;2022-12-10T03:51:30;8.77;83.00
71304;DHT22;59091;47.446;19.148;2022-12-10T03:53:55;8.76;83.12
71304;DHT22;59091;47.446;19.148;2022-12-10T03:56:21;8.73;83.16
71304;DHT22;59091;47.446;19.148;2022-12-10T03:58:48;8.74;83.16
71304;DHT22;59091;47.446;19.148;2022-12-10T04:01:14;8.93;85.59
71304;DHT22;59091;47.446;19.148;2022-12-10T04:03:41;8.90;83.59
71304;DHT22;59091;47.446;19.148;2022-12-10T04:06:09;8.81;82.52
71304;DHT22;59091;47.446;19.148;2022-12-10T04:08:35;8.72;82.30
71304;DHT22;59091;47.446;19.148;2022-12-10T04:11:05;8.60;82.55
71304;DHT22;59091;47.446;19.148;2022-12-10T04:13:35;8.52;82.75
71304;DHT22;59091;47.446;19.148;2022-12-10T04:16:19;8.33;83.23
71304;DHT22;59091;47.446;19.148;2022-12-10T04:19:17;8.24;83.44
71304;DHT22;59091;47.446;19.148;2022-12-10T04:21:43;8.21;83.78
71304;DHT22;59091;47.446;19.148;2022-12-10T04:24:32;8.21;83.49
71304;DHT22;59091;47.446;19.148;2022-12-10T04:29:47;8.31;83.37
71304;DHT22;59091;47.446;19.148;2022-12-10T04:32:13;8.32;83.25
71304;DHT22;59091;47.446;19.148;2022-12-10T04:34:38;8.28;83.06
71304;DHT22;59091;47.446;19.148;2022-12-10T04:37:04;8.31;82.99
71304;DHT22;59091;47.446;19.148;2022-12-10T04:39:30;8.31;82.84
71304;DHT22;59091;47.446;19.148;2022-12-10T04:41:55;8.33;82.78
71304;DHT22;59091;47.446;19.148;2022-12-10T04:44:21;8.29;82.72
71304;DHT22;59091;47.446;19.148;2022-12-10T04:46:46;8.36;82.56
71304;DHT22;59091;47.446;19.148;2022-12-10T04:49:12;8.33;82.73
71304;DHT22;59091;47.446;19.148;2022-12-10T04:51:38;8.21;82.92
71304;DHT22;59091;47.446;19.148;2022-12-10T04:54:04;8.29;82.89
71304;DHT22;59091;47.446;19.148;2022-12-10T04:56:30;8.32;82.81
71304;DHT22;59091;47.446;19.148;2022-12-10T04:58:59;8.31;82.65
71304;DHT22;59091;47.446;19.148;2022-12-10T05:01:25;8.21;82.72
71304;DHT22;59091;47.446;19.148;2022-12-10T05:03:51;8.08;82.72
71304;DHT22;59091;47.446;19.148;2022-12-10T05:06:18;8.02;82.92
71304;DHT22;59091;47.446;19.148;2022-12-10T05:08:43;8.09;82.93
71304;DHT22;59091;47.446;19.148;2022-12-10T05:11:12;8.16;82.55
71304;DHT22;59091;47.446;19.148;2022-12-10T05:13:38;8.19;82.44
71304;DHT22;59091;47.446;19.148;2022-12-10T05:16:05;8.24;82.28
71304;DHT22;59091;47.446;19.148;2022-12-10T05:18:31;8.24;82.34
71304;DHT22;59091;47.446;19.148;2022-12-10T05:21:05;8.13;82.24
71304;DHT22;59091;47.446;19.148;2022-12-10T05:23:31;8.26;82.10
71304;DHT22;59091;47.446;19.148;2022-12-10T05:26:06;8.33;81.87
71304;DHT22;59091;47.446;19.148;2022-12-10T05:28:47;8.31;81.72
71304;DHT22;59091;47.446;19.148;2022-12-10T05:31:22;8.50;84.76
71304;DHT22;59091;47.446;19.148;2022-12-10T05:33:48;8.35;83.11
71304;DHT22;59091;47.446;19.148;2022-12-10T05:36:15;8.15;81.89
71304;DHT22;59091;47.446;19.148;2022-12-10T05:38:41;8.09;82.17
71304;DHT22;59091;47.446;19.148;2022-12-10T05:41:16;8.12;82.58
71304;DHT22;59091;47.446;19.148;2022-12-10T05:43:42;8.08;82.66
71304;DHT22;59091;47.446;19.148;2022-12-10T05:46:15;8.21;83.43
71304;DHT22;59091;47.446;19.148;2022-12-10T05:48:40;8.03;82.58
71304;DHT22;59091;47.446;19.148;2022-12-10T05:51:08;8.08;82.29
71304;DHT22;59091;47.446;19.148;2022-12-10T05:53:34;7.99;82.35
71304;DHT22;59091;47.446;19.148;2022-12-10T05:56:01;7.99;82.27
71304;DHT22;59091;47.446;19.148;2022-12-10T05:58:28;8.11;82.09
71304;DHT22;59091;47.446;19.148;2022-12-10T06:00:54;8.09;82.21
71304;DHT22;59091;47.446;19.148;2022-12-10T06:03:20;7.97;82.20
71304;DHT22;59091;47.446;19.148;2022-12-10T06:05:45;8.06;82.18
71304;DHT22;59091;47.446;19.148;2022-12-10T06:08:11;7.97;82.20
71304;DHT22;59091;47.446;19.148;2022-12-10T06:10:36;7.90;82.67
71304;DHT22;59091;47.446;19.148;2022-12-10T06:13:03;7.94;82.44
71304;DHT22;59091;47.446;19.148;2022-12-10T06:15:29;7.84;82.51
71304;DHT22;59091;47.446;19.148;2022-12-10T06:17:56;7.75;82.59
71304;DHT22;59091;47.446;19.148;2022-12-10T06:20:22;7.73;82.95
71304;DHT22;59091;47.446;19.148;2022-12-10T06:22:48;7.81;82.60
71304;DHT22;59091;47.446;19.148;2022-12-10T06:25:13;7.81;82.61
71304;DHT22;59091;47.446;19.148;2022-12-10T06:27:39;7.85;82.38
71304;DHT22;59091;47.446;19.148;2022-12-10T06:30:05;7.88;82.24
71304;DHT22;59091;47.446;19.148;2022-12-10T06:32:31;7.92;82.03
71304;DHT22;59091;47.446;19.148;2022-12-10T06:34:56;7.70;82.28
71304;DHT22;59091;47.446;19.148;2022-12-10T06:37:22;7.85;82.15
71304;DHT22;59091;47.446;19.148;2022-12-10T06:39:50;7.85;82.03
71304;DHT22;59091;47.446;19.148;2022-12-10T06:42:15;7.85;82.04
71304;DHT22;59091;47.446;19.148;2022-12-10T06:44:41;7.85;81.76
71304;DHT22;59091;47.446;19.148;2022-12-10T06:47:06;7.82;82.03
71304;DHT22;59091;47.446;19.148;2022-12-10T06:49:31;7.84;82.10
71304;DHT22;59091;47.446;19.148;2022-12-10T06:51:57;7.73;82.13
71304;DHT22;59091;47.446;19.148;2022-12-10T06:54:22;7.74;82.52
71304;DHT22;59091;47.446;19.148;2022-12-10T06:56:47;7.63;82.60
71304;DHT22;59091;47.446;19.148;2022-12-10T06:59:13;7.54;82.59
71304;DHT22;59091;47.446;19.148;2022-12-10T07:01:38;7.69;82.36
71304;DHT22;59091;47.446;19.148;2022-12-10T07:04:05;7.54;82.38
71304;DHT22;59091;47.446;19.148;2022-12-10T07:06:31;7.54;82.18
71304;DHT22;59091;47.446;19.148;2022-12-10T07:08:57;7.51;82.09
71304;DHT22;59091;47.446;19.148;2022-12-10T07:11:23;7.69;81.85
71304;DHT22;59091;47.446;19.148;2022-12-10T07:13:49;7.66;81.65
71304;DHT22;59091;47.446;19.148;2022-12-10T07:16:18;7.42;81.83
71304;DHT22;59091;47.446;19.148;2022-12-10T07:18:45;7.39;82.16
71304;DHT22;59091;47.446;19.148;2022-12-10T07:23:50;7.22;82.35
71304;DHT22;59091;47.446;19.148;2022-12-10T07:26:16;7.20;82.66
71304;DHT22;59091;47.446;19.148;2022-12-10T07:28:42;7.31;82.38
71304;DHT22;59091;47.446;19.148;2022-12-10T07:31:08;7.44;82.01
71304;DHT22;59091;47.446;19.148;2022-12-10T07:33:34;7.47;82.00
71304;DHT22;59091;47.446;19.148;2022-12-10T07:36:06;7.29;81.77
71304;DHT22;59091;47.446;19.148;2022-12-10T07:38:32;7.12;82.85
71304;DHT22;59091;47.446;19.148;2022-12-10T07:40:57;6.95;82.71
71304;DHT22;59091;47.446;19.148;2022-12-10T07:43:23;6.98;82.02
71304;DHT22;59091;47.446;19.148;2022-12-10T07:45:48;6.89;82.39
71304;DHT22;59091;47.446;19.148;2022-12-10T07:48:13;7.03;81.89
71304;DHT22;59091;47.446;19.148;2022-12-10T07:50:40;7.09;81.97
71304;DHT22;59091;47.446;19.148;2022-12-10T07:53:05;7.00;81.92
71304;DHT22;59091;47.446;19.148;2022-12-10T07:55:31;7.10;81.54
71304;DHT22;59091;47.446;19.148;2022-12-10T07:57:57;7.10;81.30
71304;DHT22;59091;47.446;19.148;2022-12-10T08:00:22;7.26;81.14
71304;DHT22;59091;47.446;19.148;2022-12-10T08:02:47;7.29;81.06
71304;DHT22;59091;47.446;19.148;2022-12-10T08:05:13;7.29;81.42
71304;DHT22;59091;47.446;19.148;2022-12-10T08:07:38;7.36;81.11
71304;DHT22;59091;47.446;19.148;2022-12-10T08:10:04;7.47;80.79
71304;DHT22;59091;47.446;19.148;2022-12-10T08:12:29;7.46;80.56
71304;DHT22;59091;47.446;19.148;2022-12-10T08:14:55;7.53;80.52
71304;DHT22;59091;47.446;19.148;2022-12-10T08:17:20;7.59;80.04
71304;DHT22;59091;47.446;19.148;2022-12-10T08:19:46;7.50;79.83
71304;DHT22;59091;47.446;19.148;2022-12-10T08:22:11;7.37;80.60
71304;DHT22;59091;47.446;19.148;2022-12-10T08:24:36;7.50;80.37
71304;DHT22;59091;47.446;19.148;2022-12-10T08:27:02;7.59;80.00
71304;DHT22;59091;47.446;19.148;2022-12-10T08:29:27;7.67;79.44
71304;DHT22;59091;47.446;19.148;2022-12-10T08:31:53;7.78;79.94
71304;DHT22;59091;47.446;19.148;2022-12-10T08:34:19;7.82;79.37
71304;DHT22;59091;47.446;19.148;2022-12-10T08:36:45;7.97;79.06
71304;DHT22;59091;47.446;19.148;2022-12-10T08:39:11;7.78;79.14
71304;DHT22;59091;47.446;19.148;2022-12-10T08:41:40;7.95;79.52
71304;DHT22;59091;47.446;19.148;2022-12-10T08:44:06;8.08;81.58
71304;DHT22;59091;47.446;19.148;2022-12-10T08:46:31;8.18;79.36
71304;DHT22;59091;47.446;19.148;2022-12-10T08:48:57;8.22;78.32
71304;DHT22;59091;47.446;19.148;2022-12-10T08:51:23;8.01;77.61
71304;DHT22;59091;47.446;19.148;2022-12-10T08:53:48;7.99;77.52
71304;DHT22;59091;47.446;19.148;2022-12-10T08:56:14;7.97;78.29
71304;DHT22;59091;47.446;19.148;2022-12-10T08:58:40;8.03;78.20
71304;DHT22;59091;47.446;19.148;2022-12-10T09:01:09;8.06;78.15
71304;DHT22;59091;47.446;19.148;2022-12-10T09:03:36;7.90;77.74
71304;DHT22;59091;47.446;19.148;2022-12-10T09:06:03;7.92;78.11
71304;DHT22;59091;47.446;19.148;2022-12-10T09:08:29;7.94;78.04
71304;DHT22;59091;47.446;19.148;2022-12-10T09:10:54;7.88;78.11
71304;DHT22;59091;47.446;19.148;2022-12-10T09:13:19;8.09;79.14
71304;DHT22;59091;47.446;19.148;2022-12-10T09:15:52;7.90;77.20
71304;DHT22;59091;47.446;19.148;2022-12-10T09:18:17;8.13;79.97
71304;DHT22;59091;47.446;19.148;2022-12-10T09:20:43;8.21;78.28
71304;DHT22;59091;47.446;19.148;2022-12-10T09:23:08;8.19;77.37
71304;DHT22;59091;47.446;19.148;2022-12-10T09:25:34;8.13;78.10
71304;DHT22;59091;47.446;19.148;2022-12-10T09:27:59;8.21;77.22
71304;DHT22;59091;47.446;19.148;2022-12-10T09:30:25;8.29;78.39
71304;DHT22;59091;47.446;19.148;2022-12-10T09:32:50;8.33;77.36
71304;DHT22;59091;47.446;19.148;2022-12-10T09:35:15;8.31;76.66
71304;DHT22;59091;47.446;19.148;2022-12-10T09:37:41;8.22;77.14
71304;DHT22;59091;47.446;19.148;2022-12-10T09:40:06;8.25;76.85
71304;DHT22;59091;47.446;19.148;2022-12-10T09:45:19;8.25;76.43
71304;DHT22;59091;47.446;19.148;2022-12-10T09:48:01;8.32;76.81
71304;DHT22;59091;47.446;19.148;2022-12-10T09:53:19;8.52;76.09
71304;DHT22;59091;47.446;19.148;2022-12-10T09:55:47;8.60;76.09
71304;DHT22;59091;47.446;19.148;2022-12-10T09:58:19;8.54;76.03
71304;DHT22;59091;47.446;19.148;2022-12-10T10:00:47;8.54;76.11
71304;DHT22;59091;47.446;19.148;2022-12-10T10:03:15;8.53;76.01
71304;DHT22;59091;47.446;19.148;2022-12-10T10:05:46;8.42;77.05
71304;DHT22;59091;47.446;19.148;2022-12-10T10:10:47;8.60;75.90
71304;DHT22;59091;47.446;19.148;2022-12-10T10:15:47;8.63;75.92
71304;DHT22;59091;47.446;19.148;2022-12-10T10:20:57;8.41;76.22
71304;DHT22;59091;47.446;19.148;2022-12-10T10:23:22;8.43;76.45
71304;DHT22;59091;47.446;19.148;2022-12-10T10:25:48;8.49;76.72
71304;DHT22;59091;47.446;19.148;2022-12-10T10:28:20;8.57;76.06
71304;DHT22;59091;47.446;19.148;2022-12-10T10:30:47;8.62;76.17
71304;DHT22;59091;47.446;19.148;2022-12-10T10:33:14;8.50;76.09
71304;DHT22;59091;47.446;19.148;2022-12-10T10:35:57;8.46;76.32
71304;DHT22;59091;47.446;19.148;2022-12-10T10:38:26;8.39;75.99
71304;DHT22;59091;47.446;19.148;2022-12-10T10:40:55;8.42;75.79
71304;DHT22;59091;47.446;19.148;2022-12-10T10:43:47;8.24;75.92
71304;DHT22;59091;47.446;19.148;2022-12-10T10:46:21;8.29;76.35
71304;DHT22;59091;47.446;19.148;2022-12-10T10:48:47;8.41;76.19
71304;DHT22;59091;47.446;19.148;2022-12-10T10:53:47;8.48;76.33
71304;DHT22;59091;47.446;19.148;2022-12-10T10:56:16;8.48;78.95
71304;DHT22;59091;47.446;19.148;2022-12-10T11:01:46;8.54;76.00
71304;DHT22;59091;47.446;19.148;2022-12-10T11:04:13;8.87;80.43
71304;DHT22;59091;47.446;19.148;2022-12-10T11:06:43;8.79;75.84
71304;DHT22;59091;47.446;19.148;2022-12-10T11:09:20;8.62;75.36
71304;DHT22;59091;47.446;19.148;2022-12-10T11:11:50;8.38;75.70
71304;DHT22;59091;47.446;19.148;2022-12-10T11:14:32;8.49;75.69
71304;DHT22;59091;47.446;19.148;2022-12-10T11:19:42;8.24;76.60
71304;DHT22;59091;47.446;19.148;2022-12-10T11:22:20;8.08;77.25
71304;DHT22;59091;47.446;19.148;2022-12-10T11:24:47;8.01;77.36
71304;DHT22;59091;47.446;19.148;2022-12-10T11:27:29;7.99;77.84
71304;DHT22;59091;47.446;19.148;2022-12-10T11:30:17;8.03;77.11
71304;DHT22;59091;47.446;19.148;2022-12-10T11:33:06;8.32;81.16
71304;DHT22;59091;47.446;19.148;2022-12-10T11:38:50;8.24;76.61
71304;DHT22;59091;47.446;19.148;2022-12-10T12:00:42;8.03;77.36
71304;DHT22;59091;47.446;19.148;2022-12-10T12:03:28;8.16;77.94
71304;DHT22;59091;47.446;19.148;2022-12-10T12:11:55;8.05;78.00
71304;DHT22;59091;47.446;19.148;2022-12-10T12:14:30;8.06;78.20
71304;DHT22;59091;47.446;19.148;2022-12-10T12:17:23;8.42;86.31
71304;DHT22;59091;47.446;19.148;2022-12-10T12:19:53;8.31;79.33
71304;DHT22;59091;47.446;19.148;2022-12-10T12:22:26;8.33;77.56
71304;DHT22;59091;47.446;19.148;2022-12-10T12:25:00;8.06;77.38
71304;DHT22;59091;47.446;19.148;2022-12-10T12:27:35;7.85;77.86
71304;DHT22;59091;47.446;19.148;2022-12-10T12:30:13;7.85;78.10
71304;DHT22;59091;47.446;19.148;2022-12-10T12:32:58;7.88;78.64
71304;DHT22;59091;47.446;19.148;2022-12-10T12:35:47;7.85;79.95
71304;DHT22;59091;47.446;19.148;2022-12-10T12:41:45;8.01;80.16
71304;DHT22;59091;47.446;19.148;2022-12-10T12:43:51;7.92;79.03
71304;DHT22;59091;47.446;19.148;2022-12-10T12:46:33;7.90;78.66
71304;DHT22;59091;47.446;19.148;2022-12-10T12:49:09;7.91;78.74
71304;DHT22;59091;47.446;19.148;2022-12-10T12:51:45;7.78;80.70
71304;DHT22;59091;47.446;19.148;2022-12-10T12:54:13;7.80;79.66
71304;DHT22;59091;47.446;19.148;2022-12-10T13:02:20;7.63;79.41
71304;DHT22;59091;47.446;19.148;2022-12-10T13:04:47;7.60;79.53
71304;DHT22;59091;47.446;19.148;2022-12-10T13:09:50;7.44;79.80
71304;DHT22;59091;47.446;19.148;2022-12-10T13:12:31;7.33;80.29
71304;DHT22;59091;47.446;19.148;2022-12-10T13:17:36;7.30;80.84
71304;DHT22;59091;47.446;19.148;2022-12-10T13:28:40;6.81;82.40
71304;DHT22;59091;47.446;19.148;2022-12-10T13:33:53;6.87;82.79
71304;DHT22;59091;47.446;19.148;2022-12-10T13:36:36;6.95;82.79
71304;DHT22;59091;47.446;19.148;2022-12-10T13:41:28;6.88;82.92
71304;DHT22;59091;47.446;19.148;2022-12-10T13:44:48;6.85;82.36
71304;DHT22;59091;47.446;19.148;2022-12-10T13:47:46;6.78;82.48
71304;DHT22;59091;47.446;19.148;2022-12-10T14:00:48;6.55;83.55
71304;DHT22;59091;47.446;19.148;2022-12-10T14:08:36;6.61;84.17
71304;DHT22;59091;47.446;19.148;2022-12-10T14:11:05;6.77;83.58
71304;DHT22;59091;47.446;19.148;2022-12-10T14:13:35;6.61;83.33
71304;DHT22;59091;47.446;19.148;2022-12-10T14:16:05;6.68;83.00
71304;DHT22;59091;47.446;19.148;2022-12-10T14:18:35;6.64;82.90
71304;DHT22;59091;47.446;19.148;2022-12-10T14:21:04;6.55;82.92
71304;DHT22;59091;47.446;19.148;2022-12-10T14:23:32;6.52;83.06
71304;DHT22;59091;47.446;19.148;2022-12-10T14:26:21;6.57;83.36
71304;DHT22;59091;47.446;19.148;2022-12-10T14:28:56;6.47;82.96
71304;DHT22;59091;47.446;19.148;2022-12-10T14:31:27;6.26;83.34
71304;DHT22;59091;47.446;19.148;2022-12-10T14:33:57;6.36;83.62
71304;DHT22;59091;47.446;19.148;2022-12-10T14:36:27;6.44;83.27
71304;DHT22;59091;47.446;19.148;2022-12-10T14:38:53;6.23;84.02
71304;DHT22;59091;47.446;19.148;2022-12-10T14:41:21;6.23;83.72
71304;DHT22;59091;47.446;19.148;2022-12-10T14:43:47;6.26;83.85
71304;DHT22;59091;47.446;19.148;2022-12-10T14:46:17;6.03;83.88
71304;DHT22;59091;47.446;19.148;2022-12-10T14:48:45;6.13;84.23
71304;DHT22;59091;47.446;19.148;2022-12-10T14:51:14;6.17;83.90
71304;DHT22;59091;47.446;19.148;2022-12-10T14:53:40;5.99;84.58
71304;DHT22;59091;47.446;19.148;2022-12-10T14:56:07;6.21;84.27
71304;DHT22;59091;47.446;19.148;2022-12-10T14:58:46;6.33;85.91
71304;DHT22;59091;47.446;19.148;2022-12-10T15:01:22;6.18;84.30
71304;DHT22;59091;47.446;19.148;2022-12-10T15:03:51;6.20;84.17
71304;DHT22;59091;47.446;19.148;2022-12-10T15:06:18;6.26;83.91
71304;DHT22;59091;47.446;19.148;2022-12-10T15:08:45;6.24;83.70
71304;DHT22;59091;47.446;19.148;2022-12-10T15:11:16;6.03;84.09
71304;DHT22;59091;47.446;19.148;2022-12-10T15:13:44;5.93;84.65
71304;DHT22;59091;47.446;19.148;2022-12-10T15:16:39;5.96;84.45
71304;DHT22;59091;47.446;19.148;2022-12-10T15:19:25;5.83;84.99
71304;DHT22;59091;47.446;19.148;2022-12-10T15:22:21;5.89;84.96
71304;DHT22;59091;47.446;19.148;2022-12-10T15:24:48;5.92;85.08
71304;DHT22;59091;47.446;19.148;2022-12-10T15:27:17;5.92;84.91
71304;DHT22;59091;47.446;19.148;2022-12-10T15:29:44;6.13;84.67
71304;DHT22;59091;47.446;19.148;2022-12-10T15:32:13;6.11;84.46
71304;DHT22;59091;47.446;19.148;2022-12-10T15:34:53;6.00;84.47
71304;DHT22;59091;47.446;19.148;2022-12-10T15:37:45;5.95;84.46
71304;DHT22;59091;47.446;19.148;2022-12-10T15:40:28;5.99;84.68
71304;DHT22;59091;47.446;19.148;2022-12-10T15:43:11;5.97;84.42
71304;DHT22;59091;47.446;19.148;2022-12-10T15:45:42;6.07;84.65
71304;DHT22;59091;47.446;19.148;2022-12-10T15:48:10;6.18;84.30
71304;DHT22;59091;47.446;19.148;2022-12-10T15:50:37;6.13;84.32
71304;DHT22;59091;47.446;19.148;2022-12-10T15:53:02;6.20;84.33
71304;DHT22;59091;47.446;19.148;2022-12-10T15:55:28;6.07;84.58
71304;DHT22;59091;47.446;19.148;2022-12-10T15:57:53;6.26;85.26
71304;DHT22;59091;47.446;19.148;2022-12-10T16:00:24;6.37;84.64
71304;DHT22;59091;47.446;19.148;2022-12-10T16:02:53;6.34;84.16
71304;DHT22;59091;47.446;19.148;2022-12-10T16:05:20;6.37;84.13
71304;DHT22;59091;47.446;19.148;2022-12-10T16:07:48;6.30;84.07
71304;DHT22;59091;47.446;19.148;2022-12-10T16:10:15;6.38;83.96
71304;DHT22;59091;47.446;19.148;2022-12-10T16:12:43;6.45;83.81
71304;DHT22;59091;47.446;19.148;2022-12-10T16:15:16;6.44;83.67
71304;DHT22;59091;47.446;19.148;2022-12-10T16:17:42;6.54;83.64
71304;DHT22;59091;47.446;19.148;2022-12-10T16:22:43;6.49;83.76
71304;DHT22;59091;47.446;19.148;2022-12-10T16:25:09;6.45;83.83
71304;DHT22;59091;47.446;19.148;2022-12-10T16:27:34;6.54;83.69
71304;DHT22;59091;47.446;19.148;2022-12-10T16:30:16;6.47;83.57
71304;DHT22;59091;47.446;19.148;2022-12-10T16:32:42;6.44;83.80
71304;DHT22;59091;47.446;19.148;2022-12-10T16:35:08;6.44;83.90
71304;DHT22;59091;47.446;19.148;2022-12-10T16:37:34;6.37;83.90
71304;DHT22;59091;47.446;19.148;2022-12-10T16:40:00;6.37;84.05
71304;DHT22;59091;47.446;19.148;2022-12-10T16:42:25;6.52;83.75
71304;DHT22;59091;47.446;19.148;2022-12-10T16:44:51;6.52;83.69
71304;DHT22;59091;47.446;19.148;2022-12-10T16:47:16;6.42;83.91
71304;DHT22;59091;47.446;19.148;2022-12-10T16:49:42;6.45;84.08
71304;DHT22;59091;47.446;19.148;2022-12-10T16:52:13;6.37;83.94
71304;DHT22;59091;47.446;19.148;2022-12-10T16:54:38;6.34;84.42
71304;DHT22;59091;47.446;19.148;2022-12-10T16:57:12;6.18;84.94
71304;DHT22;59091;47.446;19.148;2022-12-10T16:59:37;6.21;84.99
71304;DHT22;59091;47.446;19.148;2022-12-10T17:02:12;6.28;84.54
71304;DHT22;59091;47.446;19.148;2022-12-10T17:04:37;6.20;85.17
71304;DHT22;59091;47.446;19.148;2022-12-10T17:07:02;6.18;85.40
71304;DHT22;59091;47.446;19.148;2022-12-10T17:09:28;6.24;85.31
71304;DHT22;59091;47.446;19.148;2022-12-10T17:11:53;6.17;85.40
71304;DHT22;59091;47.446;19.148;2022-12-10T17:14:27;6.06;85.53
71304;DHT22;59091;47.446;19.148;2022-12-10T17:16:55;6.11;85.73
71304;DHT22;59091;47.446;19.148;2022-12-10T17:19:22;6.21;85.33
71304;DHT22;59091;47.446;19.148;2022-12-10T17:21:48;6.14;85.69
71304;DHT22;59091;47.446;19.148;2022-12-10T17:24:13;6.13;85.64
71304;DHT22;59091;47.446;19.148;2022-12-10T17:26:42;6.21;85.36
71304;DHT22;59091;47.446;19.148;2022-12-10T17:29:18;6.07;85.61
71304;DHT22;59091;47.446;19.148;2022-12-10T17:31:45;6.21;85.67